sensor_id;sensor_type;location;lat;lon;timestamp;P1;durP1;ratioP1;P2;durP2;ratioP2
55328;SDS011;41205;44.264;19.884;2023-07-28T00:02:16;6.70;;;5.85;;
55328;SDS011;41205;44.264;19.884;2023-07-28T00:04:41;10.23;;;5.55;;
55328;SDS011;41205;44.264;19.884;2023-07-28T00:07:07;8.43;;;5.80;;
55328;SDS011;41205;44.264;19.884;2023-07-28T00:09:33;8.63;;;5.78;;
55328;SDS011;41205;44.264;19.884;2023-07-28T00:11:59;7.65;;;5.53;;
55328;SDS011;41205;44.264;19.884;2023-07-28T00:14:26;7.43;;;5.70;;
55328;SDS011;41205;44.264;19.884;2023-07-28T00:16:52;6.80;;;5.75;;
55328;SDS011;41205;44.264;19.884;2023-07-28T00:19:19;8.77;;;6.10;;
55328;SDS011;41205;44.264;19.884;2023-07-28T00:21:46;6.40;;;5.68;;
55328;SDS011;41205;44.264;19.884;2023-07-28T00:24:13;8.00;;;5.93;;
55328;SDS011;41205;44.264;19.884;2023-07-28T00:26:38;5.90;;;5.28;;
55328;SDS011;41205;44.264;19.884;2023-07-28T00:29:04;7.82;;;6.10;;
55328;SDS011;41205;44.264;19.884;2023-07-28T00:31:31;8.07;;;5.95;;
55328;SDS011;41205;44.264;19.884;2023-07-28T00:33:57;8.00;;;6.13;;
55328;SDS011;41205;44.264;19.884;2023-07-28T00:36:23;8.23;;;5.72;;
55328;SDS011;41205;44.264;19.884;2023-07-28T00:38:49;6.60;;;5.97;;
55328;SDS011;41205;44.264;19.884;2023-07-28T00:41:15;11.38;;;6.35;;
55328;SDS011;41205;44.264;19.884;2023-07-28T00:43:40;8.00;;;7.00;;
55328;SDS011;41205;44.264;19.884;2023-07-28T00:46:06;8.80;;;6.70;;
55328;SDS011;41205;44.264;19.884;2023-07-28T00:48:32;8.40;;;6.57;;
55328;SDS011;41205;44.264;19.884;2023-07-28T00:50:57;9.57;;;6.53;;
55328;SDS011;41205;44.264;19.884;2023-07-28T00:53:23;11.95;;;6.47;;
55328;SDS011;41205;44.264;19.884;2023-07-28T00:55:49;7.60;;;6.70;;
55328;SDS011;41205;44.264;19.884;2023-07-28T00:58:16;8.13;;;7.07;;
55328;SDS011;41205;44.264;19.884;2023-07-28T01:00:42;8.82;;;6.75;;
55328;SDS011;41205;44.264;19.884;2023-07-28T01:03:08;10.15;;;6.68;;
55328;SDS011;41205;44.264;19.884;2023-07-28T01:05:39;8.38;;;6.13;;
55328;SDS011;41205;44.264;19.884;2023-07-28T01:08:19;7.50;;;6.72;;
55328;SDS011;41205;44.264;19.884;2023-07-28T01:10:48;10.05;;;7.28;;
55328;SDS011;41205;44.264;19.884;2023-07-28T01:13:14;7.55;;;6.05;;
55328;SDS011;41205;44.264;19.884;2023-07-28T01:15:40;7.30;;;6.60;;
55328;SDS011;41205;44.264;19.884;2023-07-28T01:18:05;8.15;;;7.35;;
55328;SDS011;41205;44.264;19.884;2023-07-28T01:20:31;7.82;;;6.43;;
55328;SDS011;41205;44.264;19.884;2023-07-28T01:23:14;9.38;;;7.18;;
55328;SDS011;41205;44.264;19.884;2023-07-28T01:28:34;7.30;;;6.60;;
55328;SDS011;41205;44.264;19.884;2023-07-28T01:31:04;7.82;;;6.25;;
55328;SDS011;41205;44.264;19.884;2023-07-28T01:33:31;7.75;;;6.55;;
55328;SDS011;41205;44.264;19.884;2023-07-28T01:35:57;8.73;;;6.35;;
55328;SDS011;41205;44.264;19.884;2023-07-28T01:38:25;9.90;;;7.93;;
55328;SDS011;41205;44.264;19.884;2023-07-28T01:40:50;6.72;;;5.93;;
55328;SDS011;41205;44.264;19.884;2023-07-28T01:43:16;7.45;;;6.75;;
55328;SDS011;41205;44.264;19.884;2023-07-28T01:45:42;9.10;;;6.80;;
55328;SDS011;41205;44.264;19.884;2023-07-28T01:48:07;7.38;;;6.10;;
55328;SDS011;41205;44.264;19.884;2023-07-28T01:50:34;7.28;;;6.40;;
55328;SDS011;41205;44.264;19.884;2023-07-28T01:53:00;10.25;;;6.88;;
55328;SDS011;41205;44.264;19.884;2023-07-28T01:55:26;7.60;;;6.35;;
55328;SDS011;41205;44.264;19.884;2023-07-28T01:57:56;8.90;;;6.53;;
55328;SDS011;41205;44.264;19.884;2023-07-28T02:00:24;8.25;;;6.57;;
55328;SDS011;41205;44.264;19.884;2023-07-28T02:02:50;8.98;;;6.32;;
55328;SDS011;41205;44.264;19.884;2023-07-28T02:05:16;7.97;;;6.60;;
55328;SDS011;41205;44.264;19.884;2023-07-28T02:07:42;7.82;;;6.50;;
55328;SDS011;41205;44.264;19.884;2023-07-28T02:10:08;7.45;;;6.15;;
55328;SDS011;41205;44.264;19.884;2023-07-28T02:12:35;7.40;;;6.63;;
55328;SDS011;41205;44.264;19.884;2023-07-28T02:15:01;7.40;;;6.60;;
55328;SDS011;41205;44.264;19.884;2023-07-28T02:17:27;8.02;;;6.28;;
55328;SDS011;41205;44.264;19.884;2023-07-28T02:19:53;7.65;;;6.85;;
55328;SDS011;41205;44.264;19.884;2023-07-28T02:22:19;8.90;;;6.63;;
55328;SDS011;41205;44.264;19.884;2023-07-28T02:24:44;7.50;;;6.68;;
55328;SDS011;41205;44.264;19.884;2023-07-28T02:27:10;7.00;;;6.30;;
55328;SDS011;41205;44.264;19.884;2023-07-28T02:29:36;7.70;;;6.65;;
55328;SDS011;41205;44.264;19.884;2023-07-28T02:32:01;7.28;;;6.57;;
55328;SDS011;41205;44.264;19.884;2023-07-28T02:34:27;7.60;;;6.85;;
55328;SDS011;41205;44.264;19.884;2023-07-28T02:36:53;7.47;;;6.22;;
55328;SDS011;41205;44.264;19.884;2023-07-28T02:39:19;9.05;;;6.63;;
55328;SDS011;41205;44.264;19.884;2023-07-28T02:41:45;7.60;;;6.82;;
55328;SDS011;41205;44.264;19.884;2023-07-28T02:44:11;8.80;;;6.88;;
55328;SDS011;41205;44.264;19.884;2023-07-28T02:46:37;8.07;;;5.95;;
55328;SDS011;41205;44.264;19.884;2023-07-28T02:49:02;8.00;;;6.68;;
55328;SDS011;41205;44.264;19.884;2023-07-28T02:51:29;7.65;;;6.28;;
55328;SDS011;41205;44.264;19.884;2023-07-28T02:53:56;7.53;;;6.20;;
55328;SDS011;41205;44.264;19.884;2023-07-28T02:56:22;7.20;;;6.50;;
55328;SDS011;41205;44.264;19.884;2023-07-28T02:58:48;7.93;;;7.13;;
55328;SDS011;41205;44.264;19.884;2023-07-28T03:01:14;7.20;;;6.47;;
55328;SDS011;41205;44.264;19.884;2023-07-28T03:03:39;7.70;;;6.90;;
55328;SDS011;41205;44.264;19.884;2023-07-28T03:06:05;7.20;;;5.95;;
55328;SDS011;41205;44.264;19.884;2023-07-28T03:08:31;7.10;;;6.40;;
55328;SDS011;41205;44.264;19.884;2023-07-28T03:10:57;8.20;;;6.63;;
55328;SDS011;41205;44.264;19.884;2023-07-28T03:13:23;9.13;;;6.95;;
55328;SDS011;41205;44.264;19.884;2023-07-28T03:15:49;8.82;;;7.13;;
55328;SDS011;41205;44.264;19.884;2023-07-28T03:18:15;9.55;;;6.82;;
55328;SDS011;41205;44.264;19.884;2023-07-28T03:20:40;10.32;;;6.90;;
55328;SDS011;41205;44.264;19.884;2023-07-28T03:23:06;7.30;;;6.60;;
55328;SDS011;41205;44.264;19.884;2023-07-28T03:25:32;7.55;;;6.30;;
55328;SDS011;41205;44.264;19.884;2023-07-28T03:27:58;9.38;;;6.90;;
55328;SDS011;41205;44.264;19.884;2023-07-28T03:30:23;6.95;;;6.03;;
55328;SDS011;41205;44.264;19.884;2023-07-28T03:32:49;6.88;;;6.18;;
55328;SDS011;41205;44.264;19.884;2023-07-28T03:35:15;8.05;;;6.40;;
55328;SDS011;41205;44.264;19.884;2023-07-28T03:37:40;6.00;;;5.13;;
55328;SDS011;41205;44.264;19.884;2023-07-28T03:40:06;7.63;;;6.82;;
55328;SDS011;41205;44.264;19.884;2023-07-28T03:42:32;7.20;;;5.80;;
55328;SDS011;41205;44.264;19.884;2023-07-28T03:44:59;10.18;;;5.93;;
55328;SDS011;41205;44.264;19.884;2023-07-28T03:47:24;6.85;;;6.15;;
55328;SDS011;41205;44.264;19.884;2023-07-28T03:49:50;8.40;;;6.35;;
55328;SDS011;41205;44.264;19.884;2023-07-28T03:52:16;9.20;;;5.45;;
55328;SDS011;41205;44.264;19.884;2023-07-28T03:54:42;6.60;;;6.00;;
55328;SDS011;41205;44.264;19.884;2023-07-28T03:57:08;7.60;;;6.38;;
55328;SDS011;41205;44.264;19.884;2023-07-28T03:59:35;8.02;;;5.78;;
55328;SDS011;41205;44.264;19.884;2023-07-28T04:02:00;5.78;;;5.18;;
55328;SDS011;41205;44.264;19.884;2023-07-28T04:04:26;7.50;;;6.10;;
55328;SDS011;41205;44.264;19.884;2023-07-28T04:06:52;6.95;;;5.63;;
55328;SDS011;41205;44.264;19.884;2023-07-28T04:09:18;9.23;;;5.55;;
55328;SDS011;41205;44.264;19.884;2023-07-28T04:11:44;5.50;;;4.80;;
55328;SDS011;41205;44.264;19.884;2023-07-28T04:14:11;8.00;;;5.90;;
55328;SDS011;41205;44.264;19.884;2023-07-28T04:16:37;6.85;;;5.68;;
55328;SDS011;41205;44.264;19.884;2023-07-28T04:19:02;7.07;;;5.75;;
55328;SDS011;41205;44.264;19.884;2023-07-28T04:21:28;6.35;;;5.40;;
55328;SDS011;41205;44.264;19.884;2023-07-28T04:23:54;5.97;;;5.30;;
55328;SDS011;41205;44.264;19.884;2023-07-28T04:26:20;6.80;;;5.40;;
55328;SDS011;41205;44.264;19.884;2023-07-28T04:28:47;6.32;;;5.70;;
55328;SDS011;41205;44.264;19.884;2023-07-28T04:31:12;6.43;;;5.60;;
55328;SDS011;41205;44.264;19.884;2023-07-28T04:33:40;8.45;;;5.65;;
55328;SDS011;41205;44.264;19.884;2023-07-28T04:36:07;6.80;;;5.68;;
55328;SDS011;41205;44.264;19.884;2023-07-28T04:38:33;12.25;;;5.80;;
55328;SDS011;41205;44.264;19.884;2023-07-28T04:40:58;10.35;;;5.07;;
55328;SDS011;41205;44.264;19.884;2023-07-28T04:43:24;7.55;;;5.68;;
55328;SDS011;41205;44.264;19.884;2023-07-28T04:45:50;8.07;;;5.57;;
55328;SDS011;41205;44.264;19.884;2023-07-28T04:48:15;6.10;;;5.50;;
55328;SDS011;41205;44.264;19.884;2023-07-28T04:50:41;8.52;;;4.68;;
55328;SDS011;41205;44.264;19.884;2023-07-28T04:53:07;7.38;;;5.35;;
55328;SDS011;41205;44.264;19.884;2023-07-28T04:55:33;7.35;;;4.60;;
55328;SDS011;41205;44.264;19.884;2023-07-28T04:57:58;5.22;;;4.70;;
55328;SDS011;41205;44.264;19.884;2023-07-28T05:00:24;4.90;;;4.40;;
55328;SDS011;41205;44.264;19.884;2023-07-28T05:02:50;5.15;;;4.45;;
55328;SDS011;41205;44.264;19.884;2023-07-28T05:05:16;8.10;;;5.35;;
55328;SDS011;41205;44.264;19.884;2023-07-28T05:07:41;5.00;;;4.45;;
55328;SDS011;41205;44.264;19.884;2023-07-28T05:10:07;6.13;;;4.60;;
55328;SDS011;41205;44.264;19.884;2023-07-28T05:12:33;7.10;;;4.90;;
55328;SDS011;41205;44.264;19.884;2023-07-28T05:14:59;7.93;;;4.40;;
55328;SDS011;41205;44.264;19.884;2023-07-28T05:17:24;6.20;;;5.10;;
55328;SDS011;41205;44.264;19.884;2023-07-28T05:19:50;5.30;;;4.80;;
55328;SDS011;41205;44.264;19.884;2023-07-28T05:22:16;7.22;;;4.30;;
55328;SDS011;41205;44.264;19.884;2023-07-28T05:24:42;5.25;;;4.65;;
55328;SDS011;41205;44.264;19.884;2023-07-28T05:27:09;5.53;;;4.40;;
55328;SDS011;41205;44.264;19.884;2023-07-28T05:29:35;6.25;;;4.50;;
55328;SDS011;41205;44.264;19.884;2023-07-28T05:32:01;5.13;;;4.63;;
55328;SDS011;41205;44.264;19.884;2023-07-28T05:34:27;5.78;;;5.18;;
55328;SDS011;41205;44.264;19.884;2023-07-28T05:36:53;5.45;;;4.95;;
55328;SDS011;41205;44.264;19.884;2023-07-28T05:39:19;5.68;;;5.18;;
55328;SDS011;41205;44.264;19.884;2023-07-28T05:41:44;5.32;;;4.82;;
55328;SDS011;41205;44.264;19.884;2023-07-28T05:44:10;5.90;;;5.30;;
55328;SDS011;41205;44.264;19.884;2023-07-28T05:46:36;6.30;;;5.80;;
55328;SDS011;41205;44.264;19.884;2023-07-28T05:49:02;5.90;;;5.38;;
55328;SDS011;41205;44.264;19.884;2023-07-28T05:51:27;5.68;;;5.13;;
55328;SDS011;41205;44.264;19.884;2023-07-28T05:53:53;6.85;;;6.20;;
55328;SDS011;41205;44.264;19.884;2023-07-28T05:56:19;9.52;;;5.97;;
55328;SDS011;41205;44.264;19.884;2023-07-28T05:58:48;7.15;;;6.25;;
55328;SDS011;41205;44.264;19.884;2023-07-28T06:01:14;6.38;;;5.72;;
55328;SDS011;41205;44.264;19.884;2023-07-28T06:03:40;6.88;;;6.28;;
55328;SDS011;41205;44.264;19.884;2023-07-28T06:06:06;7.28;;;6.68;;
55328;SDS011;41205;44.264;19.884;2023-07-28T06:08:32;6.80;;;6.22;;
55328;SDS011;41205;44.264;19.884;2023-07-28T06:10:59;7.40;;;6.80;;
55328;SDS011;41205;44.264;19.884;2023-07-28T06:13:24;7.75;;;7.20;;
55328;SDS011;41205;44.264;19.884;2023-07-28T06:15:52;7.60;;;7.00;;
55328;SDS011;41205;44.264;19.884;2023-07-28T06:18:19;7.82;;;7.22;;
55328;SDS011;41205;44.264;19.884;2023-07-28T06:20:47;8.27;;;7.68;;
55328;SDS011;41205;44.264;19.884;2023-07-28T06:23:13;8.75;;;7.90;;
55328;SDS011;41205;44.264;19.884;2023-07-28T06:25:38;8.68;;;7.88;;
55328;SDS011;41205;44.264;19.884;2023-07-28T06:28:09;8.15;;;7.40;;
55328;SDS011;41205;44.264;19.884;2023-07-28T06:30:35;8.43;;;7.72;;
55328;SDS011;41205;44.264;19.884;2023-07-28T06:33:02;8.88;;;8.25;;
55328;SDS011;41205;44.264;19.884;2023-07-28T06:35:28;8.57;;;7.97;;
55328;SDS011;41205;44.264;19.884;2023-07-28T06:37:54;9.63;;;8.82;;
55328;SDS011;41205;44.264;19.884;2023-07-28T06:40:19;9.38;;;8.70;;
55328;SDS011;41205;44.264;19.884;2023-07-28T06:42:45;9.63;;;8.82;;
55328;SDS011;41205;44.264;19.884;2023-07-28T06:45:11;9.38;;;8.77;;
55328;SDS011;41205;44.264;19.884;2023-07-28T06:47:37;9.50;;;8.70;;
55328;SDS011;41205;44.264;19.884;2023-07-28T06:50:03;9.73;;;9.13;;
55328;SDS011;41205;44.264;19.884;2023-07-28T06:52:30;9.40;;;8.70;;
55328;SDS011;41205;44.264;19.884;2023-07-28T06:54:56;11.48;;;10.70;;
55328;SDS011;41205;44.264;19.884;2023-07-28T06:57:21;10.98;;;10.10;;
55328;SDS011;41205;44.264;19.884;2023-07-28T06:59:47;10.70;;;9.80;;
55328;SDS011;41205;44.264;19.884;2023-07-28T07:02:13;11.77;;;10.70;;
55328;SDS011;41205;44.264;19.884;2023-07-28T07:04:40;11.63;;;10.73;;
55328;SDS011;41205;44.264;19.884;2023-07-28T07:07:06;13.13;;;11.57;;
55328;SDS011;41205;44.264;19.884;2023-07-28T07:09:32;14.55;;;11.40;;
55328;SDS011;41205;44.264;19.884;2023-07-28T07:11:57;20.02;;;12.48;;
55328;SDS011;41205;44.264;19.884;2023-07-28T07:14:23;13.52;;;12.18;;
55328;SDS011;41205;44.264;19.884;2023-07-28T07:16:49;16.23;;;11.00;;
55328;SDS011;41205;44.264;19.884;2023-07-28T07:19:14;13.68;;;11.00;;
55328;SDS011;41205;44.264;19.884;2023-07-28T07:21:41;16.85;;;12.25;;
55328;SDS011;41205;44.264;19.884;2023-07-28T07:24:07;14.35;;;12.70;;
55328;SDS011;41205;44.264;19.884;2023-07-28T07:26:32;15.30;;;11.82;;
55328;SDS011;41205;44.264;19.884;2023-07-28T07:28:58;20.13;;;12.40;;
55328;SDS011;41205;44.264;19.884;2023-07-28T07:31:24;14.60;;;11.40;;
55328;SDS011;41205;44.264;19.884;2023-07-28T07:33:49;13.90;;;12.57;;
55328;SDS011;41205;44.264;19.884;2023-07-28T07:36:16;12.52;;;10.57;;
55328;SDS011;41205;44.264;19.884;2023-07-28T07:38:42;12.30;;;11.20;;
55328;SDS011;41205;44.264;19.884;2023-07-28T07:41:12;12.43;;;11.52;;
55328;SDS011;41205;44.264;19.884;2023-07-28T07:43:41;13.25;;;12.00;;
55328;SDS011;41205;44.264;19.884;2023-07-28T07:46:06;12.82;;;11.18;;
55328;SDS011;41205;44.264;19.884;2023-07-28T07:48:33;12.38;;;11.38;;
55328;SDS011;41205;44.264;19.884;2023-07-28T07:50:59;14.70;;;12.57;;
55328;SDS011;41205;44.264;19.884;2023-07-28T07:53:25;12.73;;;11.82;;
55328;SDS011;41205;44.264;19.884;2023-07-28T07:55:51;11.60;;;10.13;;
55328;SDS011;41205;44.264;19.884;2023-07-28T07:58:16;10.68;;;9.55;;
55328;SDS011;41205;44.264;19.884;2023-07-28T08:00:42;11.65;;;10.60;;
55328;SDS011;41205;44.264;19.884;2023-07-28T08:03:09;10.80;;;9.80;;
55328;SDS011;41205;44.264;19.884;2023-07-28T08:05:35;13.30;;;12.10;;
55328;SDS011;41205;44.264;19.884;2023-07-28T08:08:01;13.05;;;11.90;;
55328;SDS011;41205;44.264;19.884;2023-07-28T08:10:27;13.68;;;12.38;;
55328;SDS011;41205;44.264;19.884;2023-07-28T08:12:53;11.80;;;10.63;;
55328;SDS011;41205;44.264;19.884;2023-07-28T08:15:20;12.55;;;10.98;;
55328;SDS011;41205;44.264;19.884;2023-07-28T08:17:45;11.63;;;10.45;;
55328;SDS011;41205;44.264;19.884;2023-07-28T08:20:11;11.35;;;9.23;;
55328;SDS011;41205;44.264;19.884;2023-07-28T08:22:37;10.63;;;9.60;;
55328;SDS011;41205;44.264;19.884;2023-07-28T08:25:03;9.98;;;9.18;;
55328;SDS011;41205;44.264;19.884;2023-07-28T08:27:30;10.50;;;9.15;;
55328;SDS011;41205;44.264;19.884;2023-07-28T08:29:55;10.43;;;8.45;;
55328;SDS011;41205;44.264;19.884;2023-07-28T08:32:21;7.45;;;6.72;;
55328;SDS011;41205;44.264;19.884;2023-07-28T08:34:47;5.70;;;5.10;;
55328;SDS011;41205;44.264;19.884;2023-07-28T08:37:13;7.28;;;4.85;;
55328;SDS011;41205;44.264;19.884;2023-07-28T08:39:39;6.85;;;5.10;;
55328;SDS011;41205;44.264;19.884;2023-07-28T08:42:05;5.45;;;4.78;;
55328;SDS011;41205;44.264;19.884;2023-07-28T08:44:34;8.60;;;4.60;;
55328;SDS011;41205;44.264;19.884;2023-07-28T08:47:03;5.85;;;4.20;;
55328;SDS011;41205;44.264;19.884;2023-07-28T08:49:30;4.55;;;3.15;;
55328;SDS011;41205;44.264;19.884;2023-07-28T08:52:02;4.13;;;3.60;;
55328;SDS011;41205;44.264;19.884;2023-07-28T08:54:28;5.03;;;4.10;;
55328;SDS011;41205;44.264;19.884;2023-07-28T08:56:54;5.00;;;3.70;;
55328;SDS011;41205;44.264;19.884;2023-07-28T08:59:22;4.22;;;3.67;;
55328;SDS011;41205;44.264;19.884;2023-07-28T09:01:51;3.95;;;3.30;;
55328;SDS011;41205;44.264;19.884;2023-07-28T09:04:23;5.53;;;4.13;;
55328;SDS011;41205;44.264;19.884;2023-07-28T09:06:49;4.13;;;3.65;;
55328;SDS011;41205;44.264;19.884;2023-07-28T09:09:16;8.85;;;4.53;;
55328;SDS011;41205;44.264;19.884;2023-07-28T09:11:45;6.07;;;3.63;;
55328;SDS011;41205;44.264;19.884;2023-07-28T09:14:12;4.70;;;3.75;;
55328;SDS011;41205;44.264;19.884;2023-07-28T09:16:38;4.53;;;3.88;;
55328;SDS011;41205;44.264;19.884;2023-07-28T09:19:04;4.00;;;3.60;;
55328;SDS011;41205;44.264;19.884;2023-07-28T09:21:32;4.93;;;3.50;;
55328;SDS011;41205;44.264;19.884;2023-07-28T09:24:01;5.53;;;3.58;;
55328;SDS011;41205;44.264;19.884;2023-07-28T09:26:43;6.13;;;3.83;;
55328;SDS011;41205;44.264;19.884;2023-07-28T09:29:17;3.75;;;3.28;;
55328;SDS011;41205;44.264;19.884;2023-07-28T09:31:44;4.18;;;3.53;;
55328;SDS011;41205;44.264;19.884;2023-07-28T09:34:25;3.78;;;3.30;;
55328;SDS011;41205;44.264;19.884;2023-07-28T09:36:55;5.38;;;3.80;;
55328;SDS011;41205;44.264;19.884;2023-07-28T09:39:22;4.00;;;3.45;;
55328;SDS011;41205;44.264;19.884;2023-07-28T09:41:48;3.58;;;3.05;;
55328;SDS011;41205;44.264;19.884;2023-07-28T09:44:14;4.40;;;3.58;;
55328;SDS011;41205;44.264;19.884;2023-07-28T09:46:50;5.35;;;3.50;;
55328;SDS011;41205;44.264;19.884;2023-07-28T09:49:21;5.07;;;3.90;;
55328;SDS011;41205;44.264;19.884;2023-07-28T09:54:24;5.25;;;3.30;;
55328;SDS011;41205;44.264;19.884;2023-07-28T09:56:57;9.00;;;3.80;;
55328;SDS011;41205;44.264;19.884;2023-07-28T09:59:28;4.93;;;3.15;;
55328;SDS011;41205;44.264;19.884;2023-07-28T10:01:57;5.03;;;3.38;;
55328;SDS011;41205;44.264;19.884;2023-07-28T10:04:25;4.70;;;3.65;;
55328;SDS011;41205;44.264;19.884;2023-07-28T10:06:52;4.47;;;3.95;;
55328;SDS011;41205;44.264;19.884;2023-07-28T10:09:21;5.15;;;3.63;;
55328;SDS011;41205;44.264;19.884;2023-07-28T10:11:53;5.47;;;3.75;;
55328;SDS011;41205;44.264;19.884;2023-07-28T10:16:56;4.45;;;3.60;;
55328;SDS011;41205;44.264;19.884;2023-07-28T10:19:26;5.68;;;4.65;;
55328;SDS011;41205;44.264;19.884;2023-07-28T10:24:49;5.95;;;3.92;;
55328;SDS011;41205;44.264;19.884;2023-07-28T10:27:31;4.93;;;3.78;;
55328;SDS011;41205;44.264;19.884;2023-07-28T10:29:57;5.47;;;3.80;;
55328;SDS011;41205;44.264;19.884;2023-07-28T10:32:27;4.72;;;2.78;;
55328;SDS011;41205;44.264;19.884;2023-07-28T10:34:59;8.23;;;3.20;;
55328;SDS011;41205;44.264;19.884;2023-07-28T10:37:32;4.15;;;3.38;;
55328;SDS011;41205;44.264;19.884;2023-07-28T10:42:53;3.70;;;3.30;;
55328;SDS011;41205;44.264;19.884;2023-07-28T10:45:20;5.55;;;3.55;;
55328;SDS011;41205;44.264;19.884;2023-07-28T10:47:47;5.38;;;3.63;;
55328;SDS011;41205;44.264;19.884;2023-07-28T10:50:14;3.30;;;3.00;;
55328;SDS011;41205;44.264;19.884;2023-07-28T10:52:41;4.47;;;3.38;;
55328;SDS011;41205;44.264;19.884;2023-07-28T10:55:26;6.13;;;2.95;;
55328;SDS011;41205;44.264;19.884;2023-07-28T10:57:53;4.65;;;3.28;;
55328;SDS011;41205;44.264;19.884;2023-07-28T11:00:20;3.60;;;2.90;;
55328;SDS011;41205;44.264;19.884;2023-07-28T11:02:48;5.35;;;4.53;;
55328;SDS011;41205;44.264;19.884;2023-07-28T11:07:54;7.03;;;3.95;;
55328;SDS011;41205;44.264;19.884;2023-07-28T11:10:21;4.32;;;3.35;;
55328;SDS011;41205;44.264;19.884;2023-07-28T11:12:49;4.45;;;3.10;;
55328;SDS011;41205;44.264;19.884;2023-07-28T11:15:16;4.50;;;3.20;;
55328;SDS011;41205;44.264;19.884;2023-07-28T11:17:46;4.60;;;2.92;;
55328;SDS011;41205;44.264;19.884;2023-07-28T11:22:42;4.07;;;3.08;;
55328;SDS011;41205;44.264;19.884;2023-07-28T11:25:12;3.75;;;2.70;;
55328;SDS011;41205;44.264;19.884;2023-07-28T11:27:39;3.65;;;3.20;;
55328;SDS011;41205;44.264;19.884;2023-07-28T11:30:08;4.70;;;3.33;;
55328;SDS011;41205;44.264;19.884;2023-07-28T11:32:37;4.00;;;3.27;;
55328;SDS011;41205;44.264;19.884;2023-07-28T11:35:06;5.13;;;2.70;;
55328;SDS011;41205;44.264;19.884;2023-07-28T11:37:34;4.10;;;2.85;;
55328;SDS011;41205;44.264;19.884;2023-07-28T11:40:01;3.30;;;2.60;;
55328;SDS011;41205;44.264;19.884;2023-07-28T11:42:34;4.68;;;2.97;;
55328;SDS011;41205;44.264;19.884;2023-07-28T11:45:12;4.35;;;2.95;;
55328;SDS011;41205;44.264;19.884;2023-07-28T11:47:50;3.53;;;2.70;;
55328;SDS011;41205;44.264;19.884;2023-07-28T11:50:21;4.80;;;3.10;;
55328;SDS011;41205;44.264;19.884;2023-07-28T11:52:51;5.70;;;3.35;;
55328;SDS011;41205;44.264;19.884;2023-07-28T11:55:18;3.70;;;2.90;;
55328;SDS011;41205;44.264;19.884;2023-07-28T11:57:45;5.63;;;3.08;;
55328;SDS011;41205;44.264;19.884;2023-07-28T12:00:11;4.07;;;3.17;;
55328;SDS011;41205;44.264;19.884;2023-07-28T12:02:41;3.60;;;2.90;;
55328;SDS011;41205;44.264;19.884;2023-07-28T12:05:14;3.90;;;2.95;;
55328;SDS011;41205;44.264;19.884;2023-07-28T12:07:41;4.05;;;2.97;;
55328;SDS011;41205;44.264;19.884;2023-07-28T12:10:12;3.35;;;2.70;;
55328;SDS011;41205;44.264;19.884;2023-07-28T12:15:25;3.90;;;2.90;;
55328;SDS011;41205;44.264;19.884;2023-07-28T12:18:05;3.65;;;2.75;;
55328;SDS011;41205;44.264;19.884;2023-07-28T12:20:35;4.93;;;3.65;;
55328;SDS011;41205;44.264;19.884;2023-07-28T12:23:21;3.97;;;3.30;;
55328;SDS011;41205;44.264;19.884;2023-07-28T12:25:47;4.57;;;3.03;;
55328;SDS011;41205;44.264;19.884;2023-07-28T12:28:15;3.95;;;3.30;;
55328;SDS011;41205;44.264;19.884;2023-07-28T12:30:41;3.92;;;3.05;;
55328;SDS011;41205;44.264;19.884;2023-07-28T12:33:08;3.85;;;2.83;;
55328;SDS011;41205;44.264;19.884;2023-07-28T12:35:34;4.30;;;3.05;;
55328;SDS011;41205;44.264;19.884;2023-07-28T12:38:03;8.88;;;4.15;;
55328;SDS011;41205;44.264;19.884;2023-07-28T12:40:30;3.67;;;2.55;;
55328;SDS011;41205;44.264;19.884;2023-07-28T12:42:57;3.90;;;2.83;;
55328;SDS011;41205;44.264;19.884;2023-07-28T12:45:24;3.67;;;2.90;;
55328;SDS011;41205;44.264;19.884;2023-07-28T12:47:53;5.28;;;3.10;;
55328;SDS011;41205;44.264;19.884;2023-07-28T12:50:23;5.57;;;2.75;;
55328;SDS011;41205;44.264;19.884;2023-07-28T12:52:49;5.55;;;3.38;;
55328;SDS011;41205;44.264;19.884;2023-07-28T12:55:16;4.03;;;3.03;;
55328;SDS011;41205;44.264;19.884;2023-07-28T12:57:43;6.22;;;3.47;;
55328;SDS011;41205;44.264;19.884;2023-07-28T13:00:10;5.10;;;3.00;;
55328;SDS011;41205;44.264;19.884;2023-07-28T13:02:41;3.65;;;3.13;;
55328;SDS011;41205;44.264;19.884;2023-07-28T13:05:08;3.80;;;2.83;;
55328;SDS011;41205;44.264;19.884;2023-07-28T13:07:35;4.05;;;2.70;;
55328;SDS011;41205;44.264;19.884;2023-07-28T13:10:02;4.68;;;2.95;;
55328;SDS011;41205;44.264;19.884;2023-07-28T13:12:28;4.47;;;3.25;;
55328;SDS011;41205;44.264;19.884;2023-07-28T13:14:54;3.72;;;2.90;;
55328;SDS011;41205;44.264;19.884;2023-07-28T13:17:20;5.35;;;2.95;;
55328;SDS011;41205;44.264;19.884;2023-07-28T13:19:46;4.35;;;2.88;;
55328;SDS011;41205;44.264;19.884;2023-07-28T13:22:11;3.78;;;3.10;;
55328;SDS011;41205;44.264;19.884;2023-07-28T13:24:37;3.70;;;2.85;;
55328;SDS011;41205;44.264;19.884;2023-07-28T13:27:03;4.55;;;3.17;;
55328;SDS011;41205;44.264;19.884;2023-07-28T13:29:30;3.83;;;2.90;;
55328;SDS011;41205;44.264;19.884;2023-07-28T13:31:58;3.88;;;3.00;;
55328;SDS011;41205;44.264;19.884;2023-07-28T13:34:27;4.10;;;3.25;;
55328;SDS011;41205;44.264;19.884;2023-07-28T13:36:56;3.72;;;3.03;;
55328;SDS011;41205;44.264;19.884;2023-07-28T13:39:22;5.50;;;3.33;;
55328;SDS011;41205;44.264;19.884;2023-07-28T13:41:48;4.10;;;3.17;;
55328;SDS011;41205;44.264;19.884;2023-07-28T13:44:15;4.10;;;2.95;;
55328;SDS011;41205;44.264;19.884;2023-07-28T13:46:40;4.82;;;3.85;;
55328;SDS011;41205;44.264;19.884;2023-07-28T13:49:06;5.25;;;2.97;;
55328;SDS011;41205;44.264;19.884;2023-07-28T13:51:32;5.63;;;3.53;;
55328;SDS011;41205;44.264;19.884;2023-07-28T13:53:57;3.70;;;2.92;;
55328;SDS011;41205;44.264;19.884;2023-07-28T13:56:23;4.00;;;3.42;;
55328;SDS011;41205;44.264;19.884;2023-07-28T13:58:49;3.85;;;3.05;;
55328;SDS011;41205;44.264;19.884;2023-07-28T14:01:14;4.00;;;3.00;;
55328;SDS011;41205;44.264;19.884;2023-07-28T14:03:40;5.47;;;3.25;;
55328;SDS011;41205;44.264;19.884;2023-07-28T14:06:06;4.38;;;3.28;;
55328;SDS011;41205;44.264;19.884;2023-07-28T14:08:32;4.45;;;3.10;;
55328;SDS011;41205;44.264;19.884;2023-07-28T14:10:57;4.90;;;3.25;;
55328;SDS011;41205;44.264;19.884;2023-07-28T14:13:23;4.35;;;2.92;;
55328;SDS011;41205;44.264;19.884;2023-07-28T14:15:49;4.97;;;3.65;;
55328;SDS011;41205;44.264;19.884;2023-07-28T14:18:16;8.40;;;3.17;;
55328;SDS011;41205;44.264;19.884;2023-07-28T14:20:42;6.68;;;3.17;;
55328;SDS011;41205;44.264;19.884;2023-07-28T14:26:05;3.67;;;2.63;;
55328;SDS011;41205;44.264;19.884;2023-07-28T14:28:31;4.05;;;3.00;;
55328;SDS011;41205;44.264;19.884;2023-07-28T14:30:57;4.45;;;3.45;;
55328;SDS011;41205;44.264;19.884;2023-07-28T14:33:23;4.28;;;2.92;;
55328;SDS011;41205;44.264;19.884;2023-07-28T14:35:49;5.82;;;3.30;;
55328;SDS011;41205;44.264;19.884;2023-07-28T14:38:14;6.47;;;2.75;;
55328;SDS011;41205;44.264;19.884;2023-07-28T14:40:41;5.05;;;3.75;;
55328;SDS011;41205;44.264;19.884;2023-07-28T14:43:09;5.70;;;3.25;;
55328;SDS011;41205;44.264;19.884;2023-07-28T14:45:35;4.20;;;3.05;;
55328;SDS011;41205;44.264;19.884;2023-07-28T14:48:01;4.93;;;3.22;;
55328;SDS011;41205;44.264;19.884;2023-07-28T14:50:28;4.18;;;3.17;;
55328;SDS011;41205;44.264;19.884;2023-07-28T14:52:53;3.90;;;3.03;;
55328;SDS011;41205;44.264;19.884;2023-07-28T14:55:22;4.13;;;2.60;;